sensor_id;sensor_type;location;lat;lon;timestamp;P1;durP1;ratioP1;P2;durP2;ratioP2
11386;SDS011;5748;53.102;8.456;2023-05-03T00:03:38;1.00;;;1.00;;
11386;SDS011;5748;53.102;8.456;2023-05-03T00:06:08;0.77;;;0.77;;
11386;SDS011;5748;53.102;8.456;2023-05-03T00:08:36;0.90;;;0.90;;
11386;SDS011;5748;53.102;8.456;2023-05-03T00:11:04;0.80;;;0.80;;
11386;SDS011;5748;53.102;8.456;2023-05-03T00:16:17;1.67;;;0.80;;
11386;SDS011;5748;53.102;8.456;2023-05-03T00:18:47;3.27;;;0.80;;
11386;SDS011;5748;53.102;8.456;2023-05-03T00:21:13;1.07;;;0.90;;
11386;SDS011;5748;53.102;8.456;2023-05-03T00:23:41;1.20;;;1.10;;
11386;SDS011;5748;53.102;8.456;2023-05-03T00:26:08;1.40;;;1.00;;
11386;SDS011;5748;53.102;8.456;2023-05-03T00:28:35;1.20;;;1.10;;
11386;SDS011;5748;53.102;8.456;2023-05-03T00:31:06;0.90;;;0.90;;
11386;SDS011;5748;53.102;8.456;2023-05-03T00:33:35;1.17;;;0.93;;
11386;SDS011;5748;53.102;8.456;2023-05-03T00:36:08;1.13;;;1.00;;
11386;SDS011;5748;53.102;8.456;2023-05-03T00:38:37;0.87;;;0.87;;
11386;SDS011;5748;53.102;8.456;2023-05-03T00:41:04;0.90;;;0.90;;
11386;SDS011;5748;53.102;8.456;2023-05-03T00:46:19;0.80;;;0.80;;
11386;SDS011;5748;53.102;8.456;2023-05-03T00:48:48;0.80;;;0.80;;
11386;SDS011;5748;53.102;8.456;2023-05-03T00:51:15;0.83;;;0.83;;
11386;SDS011;5748;53.102;8.456;2023-05-03T00:53:44;0.90;;;0.90;;
11386;SDS011;5748;53.102;8.456;2023-05-03T00:56:12;0.97;;;0.97;;
11386;SDS011;5748;53.102;8.456;2023-05-03T00:58:44;1.00;;;0.97;;
11386;SDS011;5748;53.102;8.456;2023-05-03T01:01:12;1.27;;;1.00;;
11386;SDS011;5748;53.102;8.456;2023-05-03T01:03:39;1.30;;;1.10;;
11386;SDS011;5748;53.102;8.456;2023-05-03T01:06:10;1.77;;;1.00;;
11386;SDS011;5748;53.102;8.456;2023-05-03T01:08:46;0.93;;;0.90;;
11386;SDS011;5748;53.102;8.456;2023-05-03T01:11:26;1.37;;;1.00;;
11386;SDS011;5748;53.102;8.456;2023-05-03T01:14:00;1.30;;;1.10;;
11386;SDS011;5748;53.102;8.456;2023-05-03T01:19:36;1.10;;;1.00;;
11386;SDS011;5748;53.102;8.456;2023-05-03T01:22:20;0.90;;;0.90;;
11386;SDS011;5748;53.102;8.456;2023-05-03T01:25:00;1.10;;;0.93;;
11386;SDS011;5748;53.102;8.456;2023-05-03T01:27:35;1.07;;;1.00;;
11386;SDS011;5748;53.102;8.456;2023-05-03T01:30:09;0.90;;;0.90;;
11386;SDS011;5748;53.102;8.456;2023-05-03T01:33:09;1.10;;;1.00;;
11386;SDS011;5748;53.102;8.456;2023-05-03T01:36:15;0.90;;;0.90;;
11386;SDS011;5748;53.102;8.456;2023-05-03T01:39:47;1.00;;;1.00;;
11386;SDS011;5748;53.102;8.456;2023-05-03T01:50:19;0.80;;;0.80;;
11386;SDS011;5748;53.102;8.456;2023-05-03T01:52:48;1.10;;;1.00;;
11386;SDS011;5748;53.102;8.456;2023-05-03T01:55:16;1.10;;;1.00;;
11386;SDS011;5748;53.102;8.456;2023-05-03T01:57:49;0.97;;;0.97;;
11386;SDS011;5748;53.102;8.456;2023-05-03T02:00:36;1.00;;;0.90;;
11386;SDS011;5748;53.102;8.456;2023-05-03T02:03:04;0.97;;;0.80;;
11386;SDS011;5748;53.102;8.456;2023-05-03T02:05:31;1.57;;;1.10;;
11386;SDS011;5748;53.102;8.456;2023-05-03T02:08:01;1.10;;;1.00;;
11386;SDS011;5748;53.102;8.456;2023-05-03T02:10:34;1.10;;;1.00;;
11386;SDS011;5748;53.102;8.456;2023-05-03T02:13:02;1.00;;;0.90;;
11386;SDS011;5748;53.102;8.456;2023-05-03T02:15:29;0.80;;;0.80;;
11386;SDS011;5748;53.102;8.456;2023-05-03T02:17:58;0.90;;;0.90;;
11386;SDS011;5748;53.102;8.456;2023-05-03T02:20:26;1.07;;;1.03;;
11386;SDS011;5748;53.102;8.456;2023-05-03T02:22:59;1.20;;;1.00;;
11386;SDS011;5748;53.102;8.456;2023-05-03T02:25:26;1.13;;;1.00;;
11386;SDS011;5748;53.102;8.456;2023-05-03T02:27:53;1.20;;;1.10;;
11386;SDS011;5748;53.102;8.456;2023-05-03T02:30:21;0.90;;;0.90;;
11386;SDS011;5748;53.102;8.456;2023-05-03T02:32:54;0.90;;;0.90;;
11386;SDS011;5748;53.102;8.456;2023-05-03T02:40:00;1.00;;;0.90;;
11386;SDS011;5748;53.102;8.456;2023-05-03T02:42:31;1.10;;;1.10;;
11386;SDS011;5748;53.102;8.456;2023-05-03T02:44:59;1.30;;;1.20;;
11386;SDS011;5748;53.102;8.456;2023-05-03T02:47:27;1.30;;;1.20;;
11386;SDS011;5748;53.102;8.456;2023-05-03T02:52:54;1.10;;;1.00;;
11386;SDS011;5748;53.102;8.456;2023-05-03T02:55:22;1.10;;;0.97;;
11386;SDS011;5748;53.102;8.456;2023-05-03T02:57:49;1.03;;;0.97;;
11386;SDS011;5748;53.102;8.456;2023-05-03T03:00:16;1.10;;;1.00;;
11386;SDS011;5748;53.102;8.456;2023-05-03T03:02:44;1.00;;;1.00;;
11386;SDS011;5748;53.102;8.456;2023-05-03T03:05:11;1.83;;;1.20;;
11386;SDS011;5748;53.102;8.456;2023-05-03T03:07:53;1.10;;;1.00;;
11386;SDS011;5748;53.102;8.456;2023-05-03T03:10:20;1.20;;;1.10;;
11386;SDS011;5748;53.102;8.456;2023-05-03T03:12:49;1.10;;;1.00;;
11386;SDS011;5748;53.102;8.456;2023-05-03T03:15:16;1.23;;;1.00;;
11386;SDS011;5748;53.102;8.456;2023-05-03T03:17:44;0.90;;;0.90;;
11386;SDS011;5748;53.102;8.456;2023-05-03T03:20:11;1.00;;;1.00;;
11386;SDS011;5748;53.102;8.456;2023-05-03T03:22:49;1.53;;;1.17;;
11386;SDS011;5748;53.102;8.456;2023-05-03T03:25:16;1.17;;;1.07;;
11386;SDS011;5748;53.102;8.456;2023-05-03T03:27:46;1.20;;;1.10;;
11386;SDS011;5748;53.102;8.456;2023-05-03T03:30:13;1.00;;;1.00;;
11386;SDS011;5748;53.102;8.456;2023-05-03T03:32:42;2.20;;;1.20;;
11386;SDS011;5748;53.102;8.456;2023-05-03T03:35:09;1.10;;;1.00;;
11386;SDS011;5748;53.102;8.456;2023-05-03T03:37:50;1.20;;;1.10;;
11386;SDS011;5748;53.102;8.456;2023-05-03T03:40:17;1.20;;;1.10;;
11386;SDS011;5748;53.102;8.456;2023-05-03T03:42:48;1.90;;;1.23;;
11386;SDS011;5748;53.102;8.456;2023-05-03T03:45:16;1.00;;;1.00;;
11386;SDS011;5748;53.102;8.456;2023-05-03T03:47:43;1.30;;;1.20;;
11386;SDS011;5748;53.102;8.456;2023-05-03T03:50:18;1.20;;;1.10;;
11386;SDS011;5748;53.102;8.456;2023-05-03T03:55:35;1.10;;;1.07;;
11386;SDS011;5748;53.102;8.456;2023-05-03T03:58:04;1.00;;;1.00;;
11386;SDS011;5748;53.102;8.456;2023-05-03T04:00:33;1.17;;;1.07;;
11386;SDS011;5748;53.102;8.456;2023-05-03T04:03:00;1.20;;;1.10;;
11386;SDS011;5748;53.102;8.456;2023-05-03T04:05:27;2.13;;;1.30;;
11386;SDS011;5748;53.102;8.456;2023-05-03T04:07:54;3.03;;;1.60;;
11386;SDS011;5748;53.102;8.456;2023-05-03T04:10:21;1.00;;;0.90;;
11386;SDS011;5748;53.102;8.456;2023-05-03T04:12:48;1.20;;;1.10;;
11386;SDS011;5748;53.102;8.456;2023-05-03T04:15:17;1.20;;;1.10;;
11386;SDS011;5748;53.102;8.456;2023-05-03T04:17:44;1.30;;;1.20;;
11386;SDS011;5748;53.102;8.456;2023-05-03T04:20:11;1.23;;;1.13;;
11386;SDS011;5748;53.102;8.456;2023-05-03T04:22:39;1.40;;;1.20;;
11386;SDS011;5748;53.102;8.456;2023-05-03T04:25:07;1.30;;;1.20;;
11386;SDS011;5748;53.102;8.456;2023-05-03T04:27:38;1.30;;;1.20;;
11386;SDS011;5748;53.102;8.456;2023-05-03T04:30:05;1.30;;;1.20;;
11386;SDS011;5748;53.102;8.456;2023-05-03T04:32:36;1.50;;;1.20;;
11386;SDS011;5748;53.102;8.456;2023-05-03T04:35:04;1.20;;;1.10;;
11386;SDS011;5748;53.102;8.456;2023-05-03T04:37:34;1.23;;;1.13;;
11386;SDS011;5748;53.102;8.456;2023-05-03T04:40:02;1.07;;;1.07;;
11386;SDS011;5748;53.102;8.456;2023-05-03T04:42:42;1.67;;;1.40;;
11386;SDS011;5748;53.102;8.456;2023-05-03T04:45:14;1.67;;;1.50;;
11386;SDS011;5748;53.102;8.456;2023-05-03T04:47:45;1.47;;;1.37;;
11386;SDS011;5748;53.102;8.456;2023-05-03T04:50:12;3.73;;;1.30;;
11386;SDS011;5748;53.102;8.456;2023-05-03T04:52:40;1.40;;;1.30;;
11386;SDS011;5748;53.102;8.456;2023-05-03T04:57:43;1.70;;;1.60;;
11386;SDS011;5748;53.102;8.456;2023-05-03T05:00:11;1.50;;;1.40;;
11386;SDS011;5748;53.102;8.456;2023-05-03T05:02:39;1.40;;;1.30;;
11386;SDS011;5748;53.102;8.456;2023-05-03T05:05:09;1.87;;;1.40;;
11386;SDS011;5748;53.102;8.456;2023-05-03T05:07:36;1.70;;;1.60;;
11386;SDS011;5748;53.102;8.456;2023-05-03T05:12:35;1.53;;;1.40;;
11386;SDS011;5748;53.102;8.456;2023-05-03T05:15:02;1.50;;;1.40;;
11386;SDS011;5748;53.102;8.456;2023-05-03T05:17:30;1.60;;;1.50;;
11386;SDS011;5748;53.102;8.456;2023-05-03T05:19:57;1.30;;;1.20;;
11386;SDS011;5748;53.102;8.456;2023-05-03T05:22:25;1.53;;;1.30;;
11386;SDS011;5748;53.102;8.456;2023-05-03T05:24:52;1.63;;;1.40;;
11386;SDS011;5748;53.102;8.456;2023-05-03T05:27:19;1.50;;;1.40;;
11386;SDS011;5748;53.102;8.456;2023-05-03T05:29:46;1.50;;;1.40;;
11386;SDS011;5748;53.102;8.456;2023-05-03T05:32:13;1.43;;;1.33;;
11386;SDS011;5748;53.102;8.456;2023-05-03T05:37:43;1.47;;;1.37;;
11386;SDS011;5748;53.102;8.456;2023-05-03T05:40:10;1.30;;;1.20;;
11386;SDS011;5748;53.102;8.456;2023-05-03T05:42:38;1.30;;;1.20;;
11386;SDS011;5748;53.102;8.456;2023-05-03T05:45:05;1.13;;;1.10;;
11386;SDS011;5748;53.102;8.456;2023-05-03T05:47:33;1.43;;;1.20;;
11386;SDS011;5748;53.102;8.456;2023-05-03T05:50:00;1.07;;;1.07;;
11386;SDS011;5748;53.102;8.456;2023-05-03T05:52:28;2.43;;;1.13;;
11386;SDS011;5748;53.102;8.456;2023-05-03T05:54:56;1.30;;;1.20;;
11386;SDS011;5748;53.102;8.456;2023-05-03T05:57:23;1.30;;;1.20;;
11386;SDS011;5748;53.102;8.456;2023-05-03T05:59:50;1.07;;;1.00;;
11386;SDS011;5748;53.102;8.456;2023-05-03T06:02:17;1.40;;;1.30;;
11386;SDS011;5748;53.102;8.456;2023-05-03T06:04:48;1.30;;;1.20;;
11386;SDS011;5748;53.102;8.456;2023-05-03T06:07:18;1.30;;;1.20;;
11386;SDS011;5748;53.102;8.456;2023-05-03T06:09:45;1.57;;;1.30;;
11386;SDS011;5748;53.102;8.456;2023-05-03T06:12:14;1.10;;;1.00;;
11386;SDS011;5748;53.102;8.456;2023-05-03T06:14:41;1.40;;;1.20;;
11386;SDS011;5748;53.102;8.456;2023-05-03T06:17:08;1.20;;;1.10;;
11386;SDS011;5748;53.102;8.456;2023-05-03T06:19:35;1.20;;;1.10;;
11386;SDS011;5748;53.102;8.456;2023-05-03T06:22:01;1.20;;;1.10;;
11386;SDS011;5748;53.102;8.456;2023-05-03T06:24:29;1.67;;;1.10;;
11386;SDS011;5748;53.102;8.456;2023-05-03T06:26:56;1.03;;;1.00;;
11386;SDS011;5748;53.102;8.456;2023-05-03T06:29:25;1.40;;;1.30;;
11386;SDS011;5748;53.102;8.456;2023-05-03T06:31:53;1.30;;;1.20;;
11386;SDS011;5748;53.102;8.456;2023-05-03T06:34:20;1.50;;;1.40;;
11386;SDS011;5748;53.102;8.456;2023-05-03T06:36:48;1.93;;;1.20;;
11386;SDS011;5748;53.102;8.456;2023-05-03T06:39:15;1.30;;;1.20;;
11386;SDS011;5748;53.102;8.456;2023-05-03T06:41:42;1.70;;;1.20;;
11386;SDS011;5748;53.102;8.456;2023-05-03T06:44:09;1.47;;;1.17;;
11386;SDS011;5748;53.102;8.456;2023-05-03T06:46:38;1.20;;;1.10;;
11386;SDS011;5748;53.102;8.456;2023-05-03T06:49:05;1.10;;;1.00;;
11386;SDS011;5748;53.102;8.456;2023-05-03T06:51:32;0.90;;;0.90;;
11386;SDS011;5748;53.102;8.456;2023-05-03T06:53:59;1.10;;;1.00;;
11386;SDS011;5748;53.102;8.456;2023-05-03T06:56:30;1.27;;;0.90;;
11386;SDS011;5748;53.102;8.456;2023-05-03T06:58:58;1.67;;;1.00;;
11386;SDS011;5748;53.102;8.456;2023-05-03T07:01:25;0.87;;;0.87;;
11386;SDS011;5748;53.102;8.456;2023-05-03T07:03:54;0.90;;;0.90;;
11386;SDS011;5748;53.102;8.456;2023-05-03T07:06:21;0.93;;;0.93;;
11386;SDS011;5748;53.102;8.456;2023-05-03T07:08:48;1.07;;;0.97;;
11386;SDS011;5748;53.102;8.456;2023-05-03T07:11:16;1.30;;;1.10;;
11386;SDS011;5748;53.102;8.456;2023-05-03T07:13:48;1.07;;;0.90;;
11386;SDS011;5748;53.102;8.456;2023-05-03T07:16:16;1.17;;;1.07;;
11386;SDS011;5748;53.102;8.456;2023-05-03T07:18:43;1.60;;;0.97;;
11386;SDS011;5748;53.102;8.456;2023-05-03T07:21:12;1.03;;;0.90;;
11386;SDS011;5748;53.102;8.456;2023-05-03T07:23:40;1.03;;;0.90;;
11386;SDS011;5748;53.102;8.456;2023-05-03T07:26:10;1.00;;;0.90;;
11386;SDS011;5748;53.102;8.456;2023-05-03T07:28:37;1.10;;;1.00;;
11386;SDS011;5748;53.102;8.456;2023-05-03T07:31:07;0.90;;;0.90;;
11386;SDS011;5748;53.102;8.456;2023-05-03T07:33:45;0.80;;;0.80;;
11386;SDS011;5748;53.102;8.456;2023-05-03T07:36:14;0.73;;;0.73;;
11386;SDS011;5748;53.102;8.456;2023-05-03T07:38:41;0.77;;;0.70;;
11386;SDS011;5748;53.102;8.456;2023-05-03T07:41:08;1.03;;;0.80;;
11386;SDS011;5748;53.102;8.456;2023-05-03T07:43:40;0.70;;;0.70;;
11386;SDS011;5748;53.102;8.456;2023-05-03T07:46:08;0.63;;;0.63;;
11386;SDS011;5748;53.102;8.456;2023-05-03T07:48:38;0.90;;;0.70;;
11386;SDS011;5748;53.102;8.456;2023-05-03T07:51:05;0.70;;;0.70;;
11386;SDS011;5748;53.102;8.456;2023-05-03T07:53:35;0.67;;;0.67;;
11386;SDS011;5748;53.102;8.456;2023-05-03T07:56:04;0.67;;;0.60;;
11386;SDS011;5748;53.102;8.456;2023-05-03T07:58:32;0.83;;;0.70;;
11386;SDS011;5748;53.102;8.456;2023-05-03T08:00:59;1.10;;;0.70;;
11386;SDS011;5748;53.102;8.456;2023-05-03T08:03:27;1.00;;;0.73;;
11386;SDS011;5748;53.102;8.456;2023-05-03T08:05:57;1.20;;;0.80;;
11386;SDS011;5748;53.102;8.456;2023-05-03T08:08:24;1.30;;;1.00;;
11386;SDS011;5748;53.102;8.456;2023-05-03T08:10:53;1.07;;;0.97;;
11386;SDS011;5748;53.102;8.456;2023-05-03T08:13:20;0.70;;;0.70;;
11386;SDS011;5748;53.102;8.456;2023-05-03T08:15:47;1.00;;;0.70;;
11386;SDS011;5748;53.102;8.456;2023-05-03T08:18:14;0.67;;;0.67;;
11386;SDS011;5748;53.102;8.456;2023-05-03T08:20:42;0.70;;;0.60;;
11386;SDS011;5748;53.102;8.456;2023-05-03T08:23:15;0.80;;;0.77;;
11386;SDS011;5748;53.102;8.456;2023-05-03T08:25:47;0.87;;;0.70;;
11386;SDS011;5748;53.102;8.456;2023-05-03T08:28:16;1.27;;;0.80;;
11386;SDS011;5748;53.102;8.456;2023-05-03T08:30:44;0.70;;;0.70;;
11386;SDS011;5748;53.102;8.456;2023-05-03T08:33:11;0.80;;;0.80;;
11386;SDS011;5748;53.102;8.456;2023-05-03T08:35:38;0.70;;;0.70;;
11386;SDS011;5748;53.102;8.456;2023-05-03T08:38:06;1.27;;;0.80;;
11386;SDS011;5748;53.102;8.456;2023-05-03T08:40:53;0.70;;;0.70;;
11386;SDS011;5748;53.102;8.456;2023-05-03T08:43:26;2.03;;;1.00;;
11386;SDS011;5748;53.102;8.456;2023-05-03T08:45:56;0.70;;;0.70;;
11386;SDS011;5748;53.102;8.456;2023-05-03T08:48:24;0.80;;;0.80;;
11386;SDS011;5748;53.102;8.456;2023-05-03T08:50:52;1.00;;;0.90;;
11386;SDS011;5748;53.102;8.456;2023-05-03T08:53:27;0.93;;;0.70;;
11386;SDS011;5748;53.102;8.456;2023-05-03T08:55:55;2.10;;;0.83;;
11386;SDS011;5748;53.102;8.456;2023-05-03T08:58:23;0.80;;;0.80;;
11386;SDS011;5748;53.102;8.456;2023-05-03T09:00:52;0.70;;;0.70;;
11386;SDS011;5748;53.102;8.456;2023-05-03T09:03:19;1.83;;;0.90;;
11386;SDS011;5748;53.102;8.456;2023-05-03T09:05:46;0.70;;;0.70;;
11386;SDS011;5748;53.102;8.456;2023-05-03T09:08:15;0.80;;;0.80;;
11386;SDS011;5748;53.102;8.456;2023-05-03T09:10:46;1.10;;;0.80;;
11386;SDS011;5748;53.102;8.456;2023-05-03T09:13:19;0.70;;;0.70;;
11386;SDS011;5748;53.102;8.456;2023-05-03T09:15:55;2.10;;;0.73;;
11386;SDS011;5748;53.102;8.456;2023-05-03T09:18:23;0.80;;;0.70;;
11386;SDS011;5748;53.102;8.456;2023-05-03T09:20:51;0.70;;;0.70;;
11386;SDS011;5748;53.102;8.456;2023-05-03T09:23:18;1.00;;;0.90;;
11386;SDS011;5748;53.102;8.456;2023-05-03T09:25:58;0.70;;;0.60;;
11386;SDS011;5748;53.102;8.456;2023-05-03T09:28:25;1.07;;;0.70;;
11386;SDS011;5748;53.102;8.456;2023-05-03T09:31:03;0.60;;;0.60;;
11386;SDS011;5748;53.102;8.456;2023-05-03T09:33:33;0.80;;;0.70;;
11386;SDS011;5748;53.102;8.456;2023-05-03T09:36:01;0.60;;;0.60;;
11386;SDS011;5748;53.102;8.456;2023-05-03T09:38:31;1.17;;;0.70;;
11386;SDS011;5748;53.102;8.456;2023-05-03T09:41:00;0.70;;;0.70;;
11386;SDS011;5748;53.102;8.456;2023-05-03T09:43:30;0.85;;;0.75;;
11386;SDS011;5748;53.102;8.456;2023-05-03T09:46:07;0.65;;;0.60;;
11386;SDS011;5748;53.102;8.456;2023-05-03T09:48:36;0.60;;;0.60;;
11386;SDS011;5748;53.102;8.456;2023-05-03T09:51:04;1.60;;;0.70;;
11386;SDS011;5748;53.102;8.456;2023-05-03T09:53:32;1.00;;;0.60;;
11386;SDS011;5748;53.102;8.456;2023-05-03T09:56:01;0.70;;;0.70;;
11386;SDS011;5748;53.102;8.456;2023-05-03T09:58:30;0.65;;;0.65;;
11386;SDS011;5748;53.102;8.456;2023-05-03T10:00:59;0.75;;;0.60;;
11386;SDS011;5748;53.102;8.456;2023-05-03T10:03:30;0.70;;;0.57;;
11386;SDS011;5748;53.102;8.456;2023-05-03T10:06:05;1.15;;;0.77;;
11386;SDS011;5748;53.102;8.456;2023-05-03T10:08:44;0.70;;;0.70;;
11386;SDS011;5748;53.102;8.456;2023-05-03T10:11:18;0.60;;;0.60;;
11386;SDS011;5748;53.102;8.456;2023-05-03T10:13:46;1.48;;;0.70;;
11386;SDS011;5748;53.102;8.456;2023-05-03T10:16:13;0.50;;;0.50;;
11386;SDS011;5748;53.102;8.456;2023-05-03T10:18:49;0.70;;;0.70;;
11386;SDS011;5748;53.102;8.456;2023-05-03T10:21:24;1.15;;;0.88;;
11386;SDS011;5748;53.102;8.456;2023-05-03T10:24:08;0.50;;;0.50;;
11386;SDS011;5748;53.102;8.456;2023-05-03T10:26:36;0.60;;;0.60;;
11386;SDS011;5748;53.102;8.456;2023-05-03T10:35:06;0.88;;;0.70;;
11386;SDS011;5748;53.102;8.456;2023-05-03T10:37:34;0.85;;;0.70;;
11386;SDS011;5748;53.102;8.456;2023-05-03T10:40:06;1.42;;;0.60;;
11386;SDS011;5748;53.102;8.456;2023-05-03T10:42:35;2.05;;;0.65;;
11386;SDS011;5748;53.102;8.456;2023-05-03T10:45:03;0.63;;;0.60;;
11386;SDS011;5748;53.102;8.456;2023-05-03T10:47:36;0.63;;;0.63;;
11386;SDS011;5748;53.102;8.456;2023-05-03T10:50:27;1.30;;;0.68;;
11386;SDS011;5748;53.102;8.456;2023-05-03T10:52:54;0.70;;;0.70;;
11386;SDS011;5748;53.102;8.456;2023-05-03T10:55:21;0.60;;;0.60;;
11386;SDS011;5748;53.102;8.456;2023-05-03T10:57:51;0.65;;;0.65;;
11386;SDS011;5748;53.102;8.456;2023-05-03T11:00:22;0.73;;;0.70;;
11386;SDS011;5748;53.102;8.456;2023-05-03T11:03:06;0.90;;;0.70;;
11386;SDS011;5748;53.102;8.456;2023-05-03T11:08:59;0.60;;;0.60;;
11386;SDS011;5748;53.102;8.456;2023-05-03T11:11:29;0.70;;;0.70;;
11386;SDS011;5748;53.102;8.456;2023-05-03T11:13:57;0.80;;;0.80;;
11386;SDS011;5748;53.102;8.456;2023-05-03T11:16:24;0.60;;;0.60;;
11386;SDS011;5748;53.102;8.456;2023-05-03T11:18:51;1.23;;;0.60;;
11386;SDS011;5748;53.102;8.456;2023-05-03T11:21:19;0.50;;;0.50;;
11386;SDS011;5748;53.102;8.456;2023-05-03T11:23:48;0.70;;;0.70;;
11386;SDS011;5748;53.102;8.456;2023-05-03T11:26:14;0.80;;;0.60;;
11386;SDS011;5748;53.102;8.456;2023-05-03T11:28:42;0.82;;;0.70;;
11386;SDS011;5748;53.102;8.456;2023-05-03T11:31:10;0.70;;;0.70;;
11386;SDS011;5748;53.102;8.456;2023-05-03T11:33:39;0.63;;;0.63;;
11386;SDS011;5748;53.102;8.456;2023-05-03T11:36:07;0.70;;;0.60;;
11386;SDS011;5748;53.102;8.456;2023-05-03T11:38:37;0.68;;;0.68;;
11386;SDS011;5748;53.102;8.456;2023-05-03T11:41:13;0.70;;;0.70;;
11386;SDS011;5748;53.102;8.456;2023-05-03T11:43:41;0.60;;;0.60;;
11386;SDS011;5748;53.102;8.456;2023-05-03T11:46:10;1.02;;;0.60;;
11386;SDS011;5748;53.102;8.456;2023-05-03T11:48:39;0.65;;;0.65;;
11386;SDS011;5748;53.102;8.456;2023-05-03T11:51:08;0.82;;;0.82;;
11386;SDS011;5748;53.102;8.456;2023-05-03T11:53:36;0.70;;;0.70;;
11386;SDS011;5748;53.102;8.456;2023-05-03T11:56:05;0.75;;;0.70;;
11386;SDS011;5748;53.102;8.456;2023-05-03T11:58:39;0.68;;;0.68;;
11386;SDS011;5748;53.102;8.456;2023-05-03T12:01:17;1.00;;;0.77;;
11386;SDS011;5748;53.102;8.456;2023-05-03T12:03:46;0.95;;;0.80;;
11386;SDS011;5748;53.102;8.456;2023-05-03T12:06:13;0.85;;;0.85;;
11386;SDS011;5748;53.102;8.456;2023-05-03T12:08:41;1.17;;;0.80;;
11386;SDS011;5748;53.102;8.456;2023-05-03T12:11:08;0.70;;;0.70;;
11386;SDS011;5748;53.102;8.456;2023-05-03T12:13:37;0.60;;;0.60;;
11386;SDS011;5748;53.102;8.456;2023-05-03T12:16:06;0.73;;;0.70;;
11386;SDS011;5748;53.102;8.456;2023-05-03T12:18:44;0.80;;;0.80;;
11386;SDS011;5748;53.102;8.456;2023-05-03T12:21:16;0.60;;;0.60;;
11386;SDS011;5748;53.102;8.456;2023-05-03T12:23:44;0.65;;;0.65;;
11386;SDS011;5748;53.102;8.456;2023-05-03T12:26:13;0.85;;;0.70;;
11386;SDS011;5748;53.102;8.456;2023-05-03T12:28:42;0.60;;;0.60;;
11386;SDS011;5748;53.102;8.456;2023-05-03T12:31:10;0.70;;;0.70;;
11386;SDS011;5748;53.102;8.456;2023-05-03T12:33:38;0.60;;;0.60;;
11386;SDS011;5748;53.102;8.456;2023-05-03T12:36:05;0.60;;;0.60;;
11386;SDS011;5748;53.102;8.456;2023-05-03T12:38:33;0.70;;;0.70;;
11386;SDS011;5748;53.102;8.456;2023-05-03T12:41:00;0.73;;;0.60;;
11386;SDS011;5748;53.102;8.456;2023-05-03T12:43:27;0.70;;;0.70;;
11386;SDS011;5748;53.102;8.456;2023-05-03T12:45:56;0.80;;;0.73;;
11386;SDS011;5748;53.102;8.456;2023-05-03T12:48:26;0.80;;;0.70;;
11386;SDS011;5748;53.102;8.456;2023-05-03T12:50:54;0.73;;;0.70;;
11386;SDS011;5748;53.102;8.456;2023-05-03T12:53:22;0.65;;;0.65;;
11386;SDS011;5748;53.102;8.456;2023-05-03T12:55:49;0.60;;;0.60;;
11386;SDS011;5748;53.102;8.456;2023-05-03T12:58:17;0.73;;;0.73;;
11386;SDS011;5748;53.102;8.456;2023-05-03T13:00:43;1.13;;;0.70;;
11386;SDS011;5748;53.102;8.456;2023-05-03T13:03:14;0.68;;;0.68;;
11386;SDS011;5748;53.102;8.456;2023-05-03T13:05:41;0.60;;;0.60;;
11386;SDS011;5748;53.102;8.456;2023-05-03T13:08:08;0.77;;;0.77;;
11386;SDS011;5748;53.102;8.456;2023-05-03T13:10:36;0.70;;;0.63;;
11386;SDS011;5748;53.102;8.456;2023-05-03T13:13:05;0.60;;;0.60;;
11386;SDS011;5748;53.102;8.456;2023-05-03T13:15:33;0.73;;;0.73;;
11386;SDS011;5748;53.102;8.456;2023-05-03T13:18:01;0.70;;;0.70;;
11386;SDS011;5748;53.102;8.456;2023-05-03T13:20:33;0.95;;;0.70;;
11386;SDS011;5748;53.102;8.456;2023-05-03T13:23:01;0.90;;;0.70;;
11386;SDS011;5748;53.102;8.456;2023-05-03T13:25:28;0.80;;;0.80;;
11386;SDS011;5748;53.102;8.456;2023-05-03T13:27:55;0.70;;;0.70;;
11386;SDS011;5748;53.102;8.456;2023-05-03T13:30:22;0.50;;;0.50;;
11386;SDS011;5748;53.102;8.456;2023-05-03T13:32:50;0.98;;;0.93;;
11386;SDS011;5748;53.102;8.456;2023-05-03T13:35:17;1.15;;;1.00;;
11386;SDS011;5748;53.102;8.456;2023-05-03T13:37:46;0.90;;;0.80;;
11386;SDS011;5748;53.102;8.456;2023-05-03T13:40:13;1.10;;;1.00;;
11386;SDS011;5748;53.102;8.456;2023-05-03T13:42:40;1.08;;;0.77;;
11386;SDS011;5748;53.102;8.456;2023-05-03T13:45:08;1.10;;;1.00;;
11386;SDS011;5748;53.102;8.456;2023-05-03T13:47:43;1.10;;;1.00;;
11386;SDS011;5748;53.102;8.456;2023-05-03T13:50:11;1.35;;;1.10;;
11386;SDS011;5748;53.102;8.456;2023-05-03T13:52:38;1.10;;;1.00;;
11386;SDS011;5748;53.102;8.456;2023-05-03T13:55:15;0.82;;;0.82;;
11386;SDS011;5748;53.102;8.456;2023-05-03T13:57:43;0.80;;;0.80;;
11386;SDS011;5748;53.102;8.456;2023-05-03T14:00:10;0.90;;;0.90;;
11386;SDS011;5748;53.102;8.456;2023-05-03T14:02:45;0.90;;;0.90;;
11386;SDS011;5748;53.102;8.456;2023-05-03T14:05:13;0.85;;;0.85;;
11386;SDS011;5748;53.102;8.456;2023-05-03T14:10:18;1.10;;;1.00;;
11386;SDS011;5748;53.102;8.456;2023-05-03T14:12:45;1.25;;;1.10;;
11386;SDS011;5748;53.102;8.456;2023-05-03T14:15:12;0.98;;;0.98;;
11386;SDS011;5748;53.102;8.456;2023-05-03T14:17:40;2.15;;;1.65;;
11386;SDS011;5748;53.102;8.456;2023-05-03T14:20:07;1.70;;;1.30;;
11386;SDS011;5748;53.102;8.456;2023-05-03T14:25:27;1.10;;;1.00;;
11386;SDS011;5748;53.102;8.456;2023-05-03T14:27:54;1.23;;;1.13;;
11386;SDS011;5748;53.102;8.456;2023-05-03T14:30:22;1.40;;;1.30;;
11386;SDS011;5748;53.102;8.456;2023-05-03T14:32:49;1.33;;;1.10;;
11386;SDS011;5748;53.102;8.456;2023-05-03T14:41:06;1.67;;;1.23;;
11386;SDS011;5748;53.102;8.456;2023-05-03T14:43:34;1.40;;;1.30;;
11386;SDS011;5748;53.102;8.456;2023-05-03T14:46:00;1.20;;;1.10;;
11386;SDS011;5748;53.102;8.456;2023-05-03T14:48:28;1.13;;;1.07;;
11386;SDS011;5748;53.102;8.456;2023-05-03T14:50:55;1.33;;;1.23;;
11386;SDS011;5748;53.102;8.456;2023-05-03T14:53:22;1.40;;;1.30;;
11386;SDS011;5748;53.102;8.456;2023-05-03T14:58:40;1.40;;;1.30;;
11386;SDS011;5748;53.102;8.456;2023-05-03T15:01:23;2.17;;;1.40;;
11386;SDS011;5748;53.102;8.456;2023-05-03T15:03:50;2.75;;;1.48;;
11386;SDS011;5748;53.102;8.456;2023-05-03T15:06:21;0.87;;;0.87;;
11386;SDS011;5748;53.102;8.456;2023-05-03T15:08:49;1.30;;;1.20;;
11386;SDS011;5748;53.102;8.456;2023-05-03T15:11:20;1.60;;;1.30;;
11386;SDS011;5748;53.102;8.456;2023-05-03T15:13:56;1.47;;;1.30;;
11386;SDS011;5748;53.102;8.456;2023-05-03T15:16:23;1.40;;;1.30;;
11386;SDS011;5748;53.102;8.456;2023-05-03T15:18:58;1.30;;;1.20;;
11386;SDS011;5748;53.102;8.456;2023-05-03T15:24:10;1.40;;;1.30;;
11386;SDS011;5748;53.102;8.456;2023-05-03T15:29:44;1.60;;;1.27;;
11386;SDS011;5748;53.102;8.456;2023-05-03T15:32:21;1.30;;;1.20;;
11386;SDS011;5748;53.102;8.456;2023-05-03T15:34:49;2.13;;;1.30;;
11386;SDS011;5748;53.102;8.456;2023-05-03T15:37:16;1.60;;;1.40;;
11386;SDS011;5748;53.102;8.456;2023-05-03T15:39:50;1.30;;;1.20;;
11386;SDS011;5748;53.102;8.456;2023-05-03T15:42:20;2.30;;;1.70;;
11386;SDS011;5748;53.102;8.456;2023-05-03T15:44:50;1.30;;;1.20;;
11386;SDS011;5748;53.102;8.456;2023-05-03T15:50:02;1.50;;;1.40;;
11386;SDS011;5748;53.102;8.456;2023-05-03T15:52:41;1.50;;;1.40;;
11386;SDS011;5748;53.102;8.456;2023-05-03T15:55:10;1.97;;;1.77;;
11386;SDS011;5748;53.102;8.456;2023-05-03T15:57:54;2.13;;;1.93;;
11386;SDS011;5748;53.102;8.456;2023-05-03T16:00:22;2.83;;;1.97;;
11386;SDS011;5748;53.102;8.456;2023-05-03T16:05:56;1.70;;;1.60;;
11386;SDS011;5748;53.102;8.456;2023-05-03T16:11:11;2.30;;;2.10;;
11386;SDS011;5748;53.102;8.456;2023-05-03T16:13:47;1.93;;;1.80;;
11386;SDS011;5748;53.102;8.456;2023-05-03T16:16:14;2.43;;;1.90;;
11386;SDS011;5748;53.102;8.456;2023-05-03T16:18:43;1.90;;;1.70;;
11386;SDS011;5748;53.102;8.456;2023-05-03T16:21:14;2.90;;;1.80;;
11386;SDS011;5748;53.102;8.456;2023-05-03T16:23:43;1.60;;;1.50;;
11386;SDS011;5748;53.102;8.456;2023-05-03T16:26:17;1.80;;;1.57;;
11386;SDS011;5748;53.102;8.456;2023-05-03T16:29:05;2.07;;;1.70;;
11386;SDS011;5748;53.102;8.456;2023-05-03T16:31:35;1.80;;;1.70;;